Aviation Digital Data Service (ADDS)

Output produced by METARs form (0501 UTC 21 September 2017)
found at http://www.aviationweather.gov/adds/metars/
 
DGAA 210400Z 25007KT 9999 BKN010 OVC013 25/23 Q1012 NOSIG
TAF DGAA 202300Z 2100/2206 24010KT 9999 FEW012 BKN018 
     BECMG 2114/2116 19015KT BKN015 
     TEMPO 2118/2122 BKN012 OVC024 
     TEMPO 2123/2203 10010KT 8000 -RA BKN008 FM 220500 23008KT 9999 SCT012